createdAt,value
2022-11-16T00:02:24.218Z,52.53
2022-11-16T00:05:28.536Z,49.78
2022-11-16T00:08:31.666Z,52.00
2022-11-16T00:11:33.837Z,50.20
2022-11-16T00:14:36.073Z,52.00
2022-11-16T00:17:38.036Z,52.80
2022-11-16T00:20:40.008Z,52.30
2022-11-16T00:23:41.946Z,52.65
2022-11-16T00:26:43.925Z,59.50
2022-11-16T00:29:45.936Z,53.30
2022-11-16T00:32:47.865Z,51.65
2022-11-16T00:35:49.932Z,50.47
2022-11-16T00:38:53.837Z,52.17
2022-11-16T00:41:55.811Z,50.42
2022-11-16T00:44:57.780Z,52.47
2022-11-16T00:48:00.735Z,53.67
2022-11-16T00:51:03.918Z,52.33
2022-11-16T00:54:06.885Z,46.78
2022-11-16T00:57:10.556Z,50.95
2022-11-16T01:00:13.220Z,50.23
2022-11-16T01:03:15.389Z,45.70
2022-11-16T01:06:17.634Z,48.17
2022-11-16T01:09:19.578Z,51.50
2022-11-16T01:12:22.979Z,49.78
2022-11-16T01:15:26.220Z,48.95
2022-11-16T01:18:28.167Z,48.45
2022-11-16T01:21:30.208Z,49.60
2022-11-16T01:24:32.276Z,51.78
2022-11-16T01:27:34.248Z,52.10
2022-11-16T01:30:38.983Z,50.77
2022-11-16T01:33:44.595Z,50.72
2022-11-16T01:36:55.402Z,51.53
2022-11-16T01:39:58.525Z,49.53
2022-11-16T01:43:01.663Z,48.78
2022-11-16T01:46:04.687Z,49.17
2022-11-16T01:49:10.653Z,54.58
2022-11-16T01:52:16.773Z,48.47
2022-11-16T01:55:18.784Z,49.85
2022-11-16T01:58:41.124Z,51.00
2022-11-16T02:01:59.706Z,46.23
2022-11-16T02:05:02.846Z,51.67
2022-11-16T02:08:39.244Z,50.42
2022-11-16T02:11:43.684Z,53.73
2022-11-16T02:14:51.886Z,53.28
2022-11-16T02:17:59.106Z,54.42
2022-11-16T02:21:20.444Z,56.38
2022-11-16T02:24:25.557Z,51.70
2022-11-16T02:28:06.082Z,54.17
2022-11-16T02:31:11.468Z,51.65
2022-11-16T02:34:16.714Z,57.53
2022-11-16T02:37:20.737Z,54.45
2022-11-16T02:40:24.021Z,54.05
2022-11-16T02:43:29.773Z,52.87
2022-11-16T02:46:36.154Z,46.08
2022-11-16T02:49:42.273Z,46.53
2022-11-16T02:52:44.236Z,46.47
2022-11-16T02:55:46.255Z,48.47
2022-11-16T02:58:48.326Z,48.30
2022-11-16T03:01:57.367Z,48.55
2022-11-16T03:04:59.675Z,47.37
2022-11-16T03:08:07.908Z,44.78
2022-11-16T03:11:29.029Z,43.63
2022-11-16T03:14:57.090Z,45.50
2022-11-16T03:18:00.195Z,46.53
2022-11-16T03:21:06.322Z,44.88
2022-11-16T03:24:08.734Z,49.92
2022-11-16T03:27:11.684Z,47.65
2022-11-16T03:30:23.360Z,47.00
2022-11-16T03:33:34.168Z,45.75
2022-11-16T03:36:38.803Z,44.90
2022-11-16T03:39:42.145Z,45.95
2022-11-16T03:42:45.447Z,51.58
2022-11-16T03:45:48.071Z,51.77
2022-11-16T03:48:55.605Z,47.55
2022-11-16T03:52:00.151Z,46.13
2022-11-16T03:55:04.825Z,46.88
2022-11-16T03:58:06.910Z,45.13
2022-11-16T04:01:09.068Z,46.38
2022-11-16T04:04:31.113Z,47.15
2022-11-16T04:07:51.915Z,44.90
2022-11-16T04:11:12.642Z,48.30
2022-11-16T04:14:36.188Z,42.63
2022-11-16T04:17:57.491Z,42.77
2022-11-16T04:21:19.198Z,43.28
2022-11-16T04:24:25.992Z,43.47
2022-11-16T04:27:47.559Z,43.55
2022-11-16T04:31:10.546Z,46.40
2022-11-16T04:34:33.584Z,43.72
2022-11-16T04:37:52.463Z,44.20
2022-11-16T04:41:04.757Z,46.63
2022-11-16T04:44:08.118Z,47.10
2022-11-16T04:47:11.846Z,48.00
2022-11-16T04:50:14.452Z,50.23
2022-11-16T04:53:17.369Z,47.33
2022-11-16T04:56:27.669Z,49.88
2022-11-16T04:59:30.081Z,54.70
2022-11-16T05:02:32.492Z,56.15
2022-11-16T05:05:34.956Z,51.05
2022-11-16T05:08:37.227Z,54.30
2022-11-16T05:11:40.328Z,59.53
2022-11-16T05:14:43.439Z,62.97
2022-11-16T05:17:46.313Z,56.97
2022-11-16T05:21:01.420Z,50.83
2022-11-16T05:24:27.393Z,52.83
2022-11-16T05:27:30.416Z,60.53
2022-11-16T05:30:33.059Z,54.17
2022-11-16T05:33:36.812Z,50.13
2022-11-16T05:36:39.098Z,60.47
2022-11-16T05:39:41.779Z,58.05
2022-11-16T05:42:44.388Z,59.03
2022-11-16T05:45:46.657Z,60.70
2022-11-16T05:48:50.253Z,58.78
2022-11-16T05:51:52.651Z,59.97
2022-11-16T05:54:56.702Z,62.25
2022-11-16T05:57:58.905Z,63.88
2022-11-16T06:01:00.931Z,66.20
2022-11-16T06:04:03.070Z,59.97
2022-11-16T06:07:07.278Z,66.55
2022-11-16T06:10:10.948Z,64.13
2022-11-16T06:13:14.212Z,76.67
2022-11-16T06:16:16.699Z,78.35
2022-11-16T06:19:18.668Z,73.72
2022-11-16T06:22:20.717Z,70.37
2022-11-16T06:25:23.825Z,71.13
2022-11-16T06:28:26.292Z,73.70
2022-11-16T06:31:29.910Z,67.03
2022-11-16T06:34:35.125Z,63.63
2022-11-16T06:37:37.714Z,59.70
2022-11-16T06:40:39.924Z,56.55
2022-11-16T06:43:42.141Z,66.80
2022-11-16T06:46:44.194Z,67.95
2022-11-16T06:49:47.191Z,66.22
2022-11-16T06:52:56.125Z,60.43
2022-11-16T06:56:05.659Z,68.50
2022-11-16T06:59:13.391Z,63.00
2022-11-16T07:02:16.116Z,63.38
2022-11-16T07:05:19.698Z,61.50
2022-11-16T07:08:22.566Z,58.60
2022-11-16T07:11:24.983Z,66.20
2022-11-16T07:14:27.765Z,64.00
2022-11-16T07:17:29.775Z,61.45
2022-11-16T07:20:33.549Z,67.47
2022-11-16T07:23:35.917Z,71.90
2022-11-16T07:26:38.074Z,68.28
2022-11-16T07:29:47.757Z,67.63
2022-11-16T07:33:12.560Z,65.15
2022-11-16T07:36:43.591Z,61.90
2022-11-16T07:39:46.414Z,65.15
2022-11-16T07:42:49.533Z,60.63
2022-11-16T07:49:34.401Z,55.40
2022-11-16T07:52:49.574Z,56.25
2022-11-16T07:55:55.727Z,54.28
2022-11-16T07:58:59.611Z,54.07
2022-11-16T08:02:03.983Z,54.00
2022-11-16T08:05:07.377Z,52.95
2022-11-16T08:08:11.290Z,47.22
2022-11-16T08:11:13.567Z,50.55
2022-11-16T08:14:18.644Z,51.22
2022-11-16T08:17:23.012Z,49.38
2022-11-16T08:20:25.117Z,45.57
2022-11-16T08:23:27.968Z,43.25
2022-11-16T08:26:30.423Z,46.95
2022-11-16T08:29:38.336Z,47.97
2022-11-16T08:32:43.506Z,47.40
2022-11-16T08:35:48.263Z,48.40
2022-11-16T08:38:51.291Z,47.55
2022-11-16T08:41:55.160Z,46.00
2022-11-16T08:44:57.643Z,48.75
2022-11-16T08:48:04.495Z,45.88
2022-11-16T08:51:19.741Z,45.47
2022-11-16T08:54:31.142Z,44.05
2022-11-16T08:57:33.518Z,44.92
2022-11-16T09:00:40.203Z,47.87
2022-11-16T09:03:42.541Z,44.70
2022-11-16T09:06:44.806Z,43.63
2022-11-16T09:09:46.870Z,41.45
2022-11-16T09:12:49.675Z,44.22
2022-11-16T09:16:01.301Z,43.50
2022-11-16T09:19:03.329Z,42.70
2022-11-16T09:22:05.583Z,42.23
2022-11-16T09:25:08.079Z,42.47
2022-11-16T09:28:11.319Z,37.38
2022-11-16T09:31:16.506Z,39.33
2022-11-16T09:34:23.368Z,38.83
2022-11-16T09:37:25.536Z,41.22
2022-11-16T09:40:31.489Z,42.40
2022-11-16T09:43:55.861Z,37.67
2022-11-16T09:46:59.044Z,39.80
2022-11-16T09:50:04.063Z,37.40
2022-11-16T09:53:12.424Z,38.28
2022-11-16T09:56:22.513Z,35.27
2022-11-16T09:59:25.710Z,34.25
2022-11-16T10:02:36.629Z,37.30
2022-11-16T10:05:38.722Z,36.65
2022-11-16T10:08:41.402Z,36.75
2022-11-16T10:11:43.694Z,37.35
2022-11-16T10:14:57.562Z,38.97
2022-11-16T10:18:22.906Z,38.10
2022-11-16T10:21:31.106Z,35.40
2022-11-16T10:24:42.687Z,37.65
2022-11-16T10:27:47.406Z,36.45
2022-11-16T10:31:15.461Z,33.75
2022-11-16T10:34:23.783Z,34.70
2022-11-16T10:37:31.026Z,35.47
2022-11-16T10:40:37.038Z,38.87
2022-11-16T10:43:40.606Z,39.03
2022-11-16T10:46:45.736Z,36.83
2022-11-16T10:49:50.596Z,34.38
2022-11-16T10:52:52.693Z,35.37
2022-11-16T10:56:01.288Z,35.25
2022-11-16T10:59:03.314Z,37.05
2022-11-16T11:02:23.915Z,39.38
2022-11-16T11:05:27.042Z,36.07
2022-11-16T11:08:33.434Z,34.90
2022-11-16T11:11:53.951Z,34.97
2022-11-16T11:14:58.889Z,34.88
2022-11-16T11:18:13.171Z,38.80
2022-11-16T11:21:19.392Z,37.33
2022-11-16T11:27:43.472Z,32.93
2022-11-16T11:31:14.807Z,32.53
2022-11-16T11:34:27.662Z,34.28
2022-11-16T11:37:34.706Z,33.95
2022-11-16T11:40:36.831Z,35.67
2022-11-16T11:43:38.946Z,35.43
2022-11-16T11:50:18.828Z,35.85
2022-11-16T11:53:23.877Z,36.07
2022-11-16T11:56:27.077Z,35.05
2022-11-16T11:59:29.907Z,35.55
2022-11-16T12:02:44.750Z,36.58
2022-11-16T12:05:47.012Z,36.70
2022-11-16T12:09:21.499Z,36.57
2022-11-16T12:12:46.514Z,34.83
2022-11-16T12:16:06.992Z,36.28
2022-11-16T12:19:09.440Z,36.90
2022-11-16T12:22:30.391Z,39.30
2022-11-16T12:25:44.400Z,45.15
2022-11-16T12:28:59.041Z,40.92
2022-11-16T12:32:16.480Z,40.35
2022-11-16T12:35:40.837Z,39.42
2022-11-16T12:39:03.052Z,36.25
2022-11-16T12:42:14.875Z,41.25
2022-11-16T12:45:27.650Z,46.90
2022-11-16T12:48:38.854Z,42.85
2022-11-16T12:51:40.878Z,41.38
2022-11-16T12:55:24.050Z,44.90
2022-11-16T12:58:25.974Z,43.13
2022-11-16T13:01:37.021Z,39.22
2022-11-16T13:04:41.603Z,43.72
2022-11-16T13:08:04.132Z,42.90
2022-11-16T13:11:38.440Z,44.20
2022-11-16T13:14:43.525Z,44.17
2022-11-16T13:17:57.063Z,43.67
2022-11-16T13:20:59.032Z,46.92
2022-11-16T13:24:10.149Z,49.17
2022-11-16T13:27:18.043Z,46.15
2022-11-16T13:30:21.569Z,48.13
2022-11-16T13:33:26.143Z,49.25
2022-11-16T13:36:55.075Z,44.97
2022-11-16T13:39:57.194Z,47.20
2022-11-16T13:42:59.213Z,44.30
2022-11-16T13:46:01.284Z,47.78
2022-11-16T13:49:03.365Z,51.08
2022-11-16T13:52:22.650Z,46.50
2022-11-16T13:55:30.507Z,46.53
2022-11-16T13:58:34.017Z,49.80
2022-11-16T14:01:56.658Z,50.80
2022-11-16T14:05:00.318Z,45.08
2022-11-16T14:08:20.613Z,48.67
2022-11-16T14:11:28.608Z,43.63
2022-11-16T14:14:49.315Z,43.20
2022-11-16T14:17:59.715Z,41.67
2022-11-16T14:21:07.204Z,45.88
2022-11-16T14:24:24.353Z,51.20
2022-11-16T14:27:42.028Z,42.85
2022-11-16T14:30:54.804Z,42.38
2022-11-16T14:33:58.731Z,43.50
2022-11-16T14:37:00.777Z,46.78
2022-11-16T14:40:06.140Z,41.95
2022-11-16T14:43:17.029Z,43.42
2022-11-16T14:46:26.123Z,52.27
2022-11-16T14:49:28.751Z,49.33
2022-11-16T14:52:39.832Z,47.92
2022-11-16T14:55:42.908Z,50.60
2022-11-16T14:59:11.099Z,50.17
2022-11-16T15:02:22.523Z,43.80
2022-11-16T15:05:28.310Z,42.58
2022-11-16T15:08:32.663Z,44.90
2022-11-16T15:11:57.676Z,46.20
2022-11-16T15:15:03.067Z,49.65
2022-11-16T15:18:18.666Z,49.05
2022-11-16T15:21:22.316Z,56.07
2022-11-16T15:24:34.616Z,48.28
2022-11-16T15:27:38.152Z,55.92
2022-11-16T15:30:40.540Z,53.00
2022-11-16T15:33:43.205Z,51.53
2022-11-16T15:36:45.905Z,47.60
2022-11-16T15:39:47.961Z,44.55
2022-11-16T15:42:51.427Z,46.60
2022-11-16T15:45:54.014Z,42.60
2022-11-16T15:48:56.338Z,41.10
2022-11-16T15:51:58.804Z,42.28
2022-11-16T15:55:06.513Z,42.63
2022-11-16T15:58:14.787Z,37.33
2022-11-16T16:01:17.229Z,41.22
2022-11-16T16:04:19.359Z,40.33
2022-11-16T16:07:40.497Z,43.73
2022-11-16T16:10:42.807Z,41.78
2022-11-16T16:13:56.161Z,46.83
2022-11-16T16:16:59.132Z,49.42
2022-11-16T16:20:02.746Z,41.50
2022-11-16T16:23:24.891Z,40.80
2022-11-16T16:26:26.852Z,39.67
2022-11-16T16:29:28.796Z,40.80
2022-11-16T16:32:31.768Z,40.57
2022-11-16T16:35:33.780Z,40.47
2022-11-16T16:38:35.771Z,37.80
2022-11-16T16:41:39.144Z,41.17
2022-11-16T16:44:41.718Z,36.37
2022-11-16T16:47:43.687Z,37.17
2022-11-16T16:50:45.655Z,36.90
2022-11-16T16:53:47.600Z,35.20
2022-11-16T16:56:49.571Z,35.95
2022-11-16T16:59:51.558Z,39.05
2022-11-16T17:02:53.755Z,38.88
2022-11-16T17:05:59.432Z,38.27
2022-11-16T17:09:01.448Z,41.17
2022-11-16T17:12:03.445Z,36.63
2022-11-16T17:15:05.572Z,37.03
2022-11-16T17:18:07.600Z,35.10
2022-11-16T17:21:09.629Z,36.90
2022-11-16T17:24:11.809Z,37.08
2022-11-16T17:27:13.884Z,35.27
2022-11-16T17:30:16.118Z,31.77
2022-11-16T17:33:18.090Z,31.58
2022-11-16T17:36:20.204Z,33.85
2022-11-16T17:39:22.743Z,32.22
2022-11-16T17:42:24.783Z,29.23
2022-11-16T17:45:27.546Z,30.23
2022-11-16T17:48:29.600Z,31.57
2022-11-16T17:51:31.690Z,29.40
2022-11-16T17:54:33.700Z,28.23
2022-11-16T17:57:35.671Z,27.10
2022-11-16T18:00:37.700Z,25.98
2022-11-16T18:03:40.195Z,26.42
2022-11-16T18:06:42.209Z,24.88
2022-11-16T18:09:44.147Z,25.63
2022-11-16T18:12:46.184Z,25.05
2022-11-16T18:15:48.488Z,24.50
2022-11-16T18:18:55.966Z,19.53
2022-11-16T18:21:57.970Z,22.95
2022-11-16T18:25:00.051Z,23.02
2022-11-16T18:28:02.016Z,22.60
2022-11-16T18:31:05.049Z,23.17
2022-11-16T18:34:07.037Z,22.80
2022-11-16T18:37:09.289Z,22.80
2022-11-16T18:40:12.190Z,20.27
2022-11-16T18:43:14.216Z,19.88
2022-11-16T18:46:16.808Z,21.58
2022-11-16T18:49:18.845Z,19.87
2022-11-16T18:52:20.830Z,20.30
2022-11-16T18:55:22.995Z,22.35
2022-11-16T18:58:49.406Z,21.47
2022-11-16T19:01:47.904Z,20.90
2022-11-16T19:04:49.852Z,22.55
2022-11-16T19:07:51.809Z,21.88
2022-11-16T19:10:54.251Z,21.77
2022-11-16T19:13:57.878Z,22.60
2022-11-16T19:17:00.921Z,23.25
2022-11-16T19:20:02.968Z,22.70
2022-11-16T19:23:04.990Z,20.63
2022-11-16T19:26:07.195Z,22.77
2022-11-16T19:29:09.199Z,25.17
2022-11-16T19:32:11.183Z,26.60
2022-11-16T19:35:16.019Z,23.67
2022-11-16T19:38:17.969Z,23.73
2022-11-16T19:41:22.308Z,25.47
2022-11-16T19:44:24.283Z,22.45
2022-11-16T19:47:26.438Z,21.58
2022-11-16T19:50:28.430Z,23.58
2022-11-16T19:53:30.374Z,20.83
2022-11-16T19:56:32.393Z,19.50
2022-11-16T19:59:34.334Z,19.80
2022-11-16T20:02:36.608Z,16.33
2022-11-16T20:05:38.538Z,19.67
2022-11-16T20:08:41.835Z,17.08
2022-11-16T20:11:43.901Z,15.97
2022-11-16T20:14:45.892Z,13.98
2022-11-16T20:17:47.846Z,17.70
2022-11-16T20:20:49.832Z,18.85
2022-11-16T20:23:52.338Z,15.02
2022-11-16T20:26:54.289Z,18.15
2022-11-16T20:29:56.302Z,19.98
2022-11-16T20:32:58.522Z,18.57
2022-11-16T20:36:01.744Z,19.67
2022-11-16T20:39:03.739Z,20.33
2022-11-16T20:42:05.701Z,20.47
2022-11-16T20:45:08.122Z,16.40
2022-11-16T20:48:10.087Z,21.15
2022-11-16T20:51:13.571Z,21.52
2022-11-16T20:54:15.538Z,20.75
2022-11-16T20:57:17.499Z,22.67
2022-11-16T21:00:19.471Z,21.70
2022-11-16T21:03:21.431Z,19.70
2022-11-16T21:06:23.406Z,22.75
2022-11-16T21:09:25.859Z,20.38
2022-11-16T21:12:46.452Z,21.10
2022-11-16T21:16:01.777Z,22.70
2022-11-16T21:19:03.964Z,22.50
2022-11-16T21:22:05.908Z,21.25
2022-11-16T21:25:08.068Z,23.58
2022-11-16T21:28:10.027Z,23.55
2022-11-16T21:31:15.530Z,26.10
2022-11-16T21:34:18.767Z,24.13
2022-11-16T21:37:20.725Z,23.60
2022-11-16T21:40:22.668Z,19.20
2022-11-16T21:43:24.636Z,27.33
2022-11-16T21:46:26.906Z,24.90
2022-11-16T21:49:28.860Z,26.10
2022-11-16T21:52:30.840Z,24.45
2022-11-16T21:55:33.377Z,27.13
2022-11-16T21:58:35.296Z,28.48
2022-11-16T22:01:57.304Z,31.80
2022-11-16T22:05:17.817Z,31.23
2022-11-16T22:08:19.785Z,33.33
2022-11-16T22:11:22.322Z,31.90
2022-11-16T22:14:24.425Z,34.60
2022-11-16T22:17:26.751Z,31.63
2022-11-16T22:20:28.708Z,35.13
2022-11-16T22:23:31.213Z,24.92
2022-11-16T22:26:33.253Z,34.95
2022-11-16T22:29:35.256Z,31.83
2022-11-16T22:32:37.281Z,30.50
2022-11-16T22:35:39.236Z,30.03
2022-11-16T22:38:41.220Z,29.00
2022-11-16T22:41:43.217Z,31.48
2022-11-16T22:44:45.177Z,31.23
2022-11-16T22:47:49.678Z,34.30
2022-11-16T22:51:01.496Z,29.92
2022-11-16T22:54:04.506Z,32.10
2022-11-16T22:57:06.476Z,33.63
2022-11-16T23:00:10.036Z,35.42
2022-11-16T23:03:12.039Z,37.20
2022-11-16T23:06:14.162Z,36.90
2022-11-16T23:09:16.111Z,36.47
2022-11-16T23:12:47.191Z,36.53
2022-11-16T23:15:49.141Z,35.93
2022-11-16T23:18:51.132Z,36.25
2022-11-16T23:22:28.573Z,36.45
2022-11-16T23:25:49.137Z,38.55
2022-11-16T23:28:51.272Z,36.10
2022-11-16T23:31:53.245Z,37.78
2022-11-16T23:34:55.227Z,35.25
2022-11-16T23:37:57.153Z,36.63
2022-11-16T23:41:19.035Z,36.25
2022-11-16T23:44:21.032Z,35.25
2022-11-16T23:47:23.051Z,35.03
2022-11-16T23:50:25.044Z,32.83
2022-11-16T23:53:27.022Z,32.88
2022-11-16T23:56:29.182Z,32.42
2022-11-16T23:59:31.208Z,35.92
